createdAt,value
2018-04-29T00:02:05.870Z,8.70
2018-04-29T00:04:33.788Z,8.70
2018-04-29T00:07:01.374Z,8.60
2018-04-29T00:09:29.000Z,8.80
2018-04-29T00:11:56.641Z,8.80
2018-04-29T00:14:24.198Z,9.00
2018-04-29T00:16:51.831Z,8.60
2018-04-29T00:19:19.420Z,8.80
2018-04-29T00:21:47.057Z,8.70
2018-04-29T00:24:14.693Z,8.90
2018-04-29T00:26:43.057Z,8.90
2018-04-29T00:29:10.664Z,8.90
2018-04-29T00:31:38.245Z,8.90
2018-04-29T00:34:05.803Z,8.90
2018-04-29T00:36:33.444Z,8.90
2018-04-29T00:39:01.009Z,8.90
2018-04-29T00:41:28.623Z,8.90
2018-04-29T00:43:56.375Z,8.90
2018-04-29T00:46:23.980Z,8.90
2018-04-29T00:48:51.573Z,8.90
2018-04-29T00:51:19.138Z,8.90
2018-04-29T00:53:46.741Z,8.90
2018-04-29T00:56:15.098Z,9.00
2018-04-29T00:58:42.697Z,9.00
2018-04-29T01:01:10.285Z,9.40
2018-04-29T01:03:37.881Z,9.30
2018-04-29T01:06:06.581Z,9.10
2018-04-29T01:08:34.945Z,9.30
2018-04-29T01:11:02.506Z,9.00
2018-04-29T01:13:30.111Z,9.20
2018-04-29T01:15:57.670Z,9.20
2018-04-29T01:18:25.259Z,9.40
2018-04-29T01:20:52.882Z,9.20
2018-04-29T01:23:20.439Z,9.30
2018-04-29T01:25:48.065Z,9.30
2018-04-29T01:28:28.026Z,9.30
2018-04-29T01:30:55.588Z,9.30
2018-04-29T01:33:23.931Z,9.60
2018-04-29T01:35:51.552Z,9.60
2018-04-29T01:38:19.108Z,9.80
2018-04-29T01:40:46.709Z,9.30
2018-04-29T01:43:14.321Z,9.40
2018-04-29T01:45:42.642Z,9.30
2018-04-29T01:48:10.234Z,9.40
2018-04-29T01:50:38.658Z,9.50
2018-04-29T01:53:06.270Z,9.60
2018-04-29T01:55:33.852Z,9.90
2018-04-29T01:58:02.230Z,9.80
2018-04-29T02:00:30.570Z,9.30
2018-04-29T02:02:58.203Z,9.40
2018-04-29T02:05:25.802Z,9.40
2018-04-29T02:07:53.431Z,9.50
2018-04-29T02:10:21.034Z,9.30
2018-04-29T02:12:48.969Z,9.40
2018-04-29T02:15:16.564Z,9.50
2018-04-29T02:17:44.150Z,9.30
2018-04-29T02:20:12.463Z,9.20
2018-04-29T02:22:40.072Z,9.20
2018-04-29T02:25:07.617Z,9.30
2018-04-29T02:27:35.198Z,9.30
2018-04-29T02:30:02.796Z,9.40
2018-04-29T02:32:30.404Z,9.80
2018-04-29T02:34:58.044Z,9.80
2018-04-29T02:37:25.665Z,9.80
2018-04-29T02:39:53.210Z,9.30
2018-04-29T02:42:21.575Z,9.50
2018-04-29T02:44:49.160Z,9.40
2018-04-29T02:47:17.478Z,9.40
2018-04-29T02:49:45.068Z,9.50
2018-04-29T02:52:12.645Z,9.30
2018-04-29T02:54:40.212Z,9.30
2018-04-29T02:57:08.574Z,9.50
2018-04-29T02:59:36.938Z,9.30
2018-04-29T03:02:04.529Z,9.20
2018-04-29T03:04:32.851Z,9.20
2018-04-29T03:07:00.452Z,9.30
2018-04-29T03:09:28.812Z,9.50
2018-04-29T03:11:56.388Z,9.30
2018-04-29T03:14:23.992Z,9.30
2018-04-29T03:16:51.575Z,9.40
2018-04-29T03:19:19.151Z,9.20
2018-04-29T03:21:46.749Z,9.00
2018-04-29T03:24:15.113Z,9.20
2018-04-29T03:26:42.705Z,9.00
2018-04-29T03:29:10.236Z,9.40
2018-04-29T03:31:37.837Z,9.40
2018-04-29T03:34:05.395Z,9.00
2018-04-29T03:36:32.986Z,9.40
2018-04-29T03:39:00.581Z,9.00
2018-04-29T03:41:30.128Z,9.10
2018-04-29T03:43:58.487Z,9.00
2018-04-29T03:46:26.077Z,9.20
2018-04-29T03:48:53.678Z,9.00
2018-04-29T03:51:21.256Z,9.40
2018-04-29T03:53:49.632Z,9.50
2018-04-29T03:56:17.956Z,9.20
2018-04-29T03:58:57.441Z,9.30
2018-04-29T04:01:37.682Z,9.40
2018-04-29T04:04:05.290Z,9.50
2018-04-29T04:06:32.846Z,9.40
2018-04-29T04:09:00.462Z,9.30
2018-04-29T04:11:28.069Z,9.30
2018-04-29T04:13:55.677Z,9.30
2018-04-29T04:16:23.252Z,9.20
2018-04-29T04:18:51.620Z,9.00
2018-04-29T04:21:19.182Z,9.00
2018-04-29T04:23:47.984Z,9.00
2018-04-29T04:26:15.551Z,9.40
2018-04-29T04:28:43.926Z,9.30
2018-04-29T04:31:11.486Z,9.20
2018-04-29T04:33:39.878Z,9.40
2018-04-29T04:36:08.210Z,9.20
2018-04-29T04:38:35.809Z,9.20
2018-04-29T04:41:04.162Z,9.40
2018-04-29T04:43:31.765Z,9.20
2018-04-29T04:45:59.337Z,9.50
2018-04-29T04:48:26.958Z,9.30
2018-04-29T04:50:55.387Z,9.20
2018-04-29T04:53:22.951Z,9.30
2018-04-29T04:55:51.335Z,9.40
2018-04-29T04:58:19.684Z,9.30
2018-04-29T05:00:47.285Z,9.30
2018-04-29T05:03:15.609Z,9.30
2018-04-29T05:05:43.965Z,9.30
2018-04-29T05:08:13.207Z,9.50
2018-04-29T05:10:40.807Z,9.30
2018-04-29T05:13:08.364Z,9.50
2018-04-29T05:15:36.028Z,9.70
2018-04-29T05:18:03.672Z,9.50
2018-04-29T05:20:31.264Z,9.50
2018-04-29T05:22:58.916Z,9.40
2018-04-29T05:25:26.640Z,9.50
2018-04-29T05:27:55.027Z,9.30
2018-04-29T05:30:28.376Z,9.30
2018-04-29T05:32:56.788Z,9.70
2018-04-29T05:35:24.427Z,9.30
2018-04-29T05:37:52.009Z,9.60
2018-04-29T05:40:19.643Z,9.30
2018-04-29T05:42:48.005Z,9.50
2018-04-29T05:45:15.625Z,9.20
2018-04-29T05:47:43.254Z,9.40
2018-04-29T05:50:11.639Z,9.50
2018-04-29T05:52:40.093Z,9.70
2018-04-29T05:55:07.707Z,9.70
2018-04-29T05:57:35.335Z,9.80
2018-04-29T06:00:03.761Z,9.30
2018-04-29T06:02:31.423Z,9.70
2018-04-29T06:04:59.051Z,9.50
2018-04-29T06:07:26.689Z,9.40
2018-04-29T06:09:54.271Z,9.50
2018-04-29T06:12:21.896Z,9.60
2018-04-29T06:14:49.558Z,9.80
2018-04-29T06:17:17.175Z,9.60
2018-04-29T06:19:44.831Z,9.80
2018-04-29T06:22:12.544Z,9.50
2018-04-29T06:24:40.209Z,9.60
2018-04-29T06:27:07.872Z,9.80
2018-04-29T06:29:35.500Z,9.50
2018-04-29T06:32:03.231Z,9.50
2018-04-29T06:34:30.867Z,9.40
2018-04-29T06:36:58.493Z,9.80
2018-04-29T06:39:26.121Z,9.80
2018-04-29T06:41:53.835Z,9.60
2018-04-29T06:44:21.486Z,9.70
2018-04-29T06:46:49.204Z,9.90
2018-04-29T06:49:16.819Z,10.10
2018-04-29T06:51:44.563Z,10.10
2018-04-29T06:54:12.216Z,10.00
2018-04-29T06:56:39.848Z,10.10
2018-04-29T06:59:08.179Z,10.10
2018-04-29T07:01:35.856Z,10.10
2018-04-29T07:04:03.510Z,10.10
2018-04-29T07:06:31.141Z,10.10
2018-04-29T07:08:59.532Z,10.10
2018-04-29T07:11:27.187Z,10.20
2018-04-29T07:13:54.878Z,10.10
2018-04-29T07:16:22.559Z,10.10
2018-04-29T07:18:50.974Z,9.70
2018-04-29T07:21:19.748Z,9.80
2018-04-29T07:23:47.409Z,9.80
2018-04-29T07:26:15.081Z,10.10
2018-04-29T07:28:42.763Z,10.10
2018-04-29T07:31:10.484Z,10.20
2018-04-29T07:33:38.908Z,10.10
2018-04-29T07:36:06.545Z,9.80
2018-04-29T07:38:34.211Z,9.90
2018-04-29T07:41:01.792Z,10.00
2018-04-29T07:43:29.563Z,10.10
2018-04-29T07:45:57.201Z,9.80
2018-04-29T07:48:24.885Z,10.10
2018-04-29T07:50:52.496Z,10.20
2018-04-29T07:53:20.955Z,10.00
2018-04-29T07:55:54.278Z,10.00
2018-04-29T07:58:23.079Z,9.80
2018-04-29T08:00:50.866Z,9.70
2018-04-29T08:03:18.485Z,9.80
2018-04-29T08:05:48.928Z,10.00
2018-04-29T08:08:16.578Z,9.70
2018-04-29T08:10:44.206Z,10.10
2018-04-29T08:13:11.814Z,9.90
2018-04-29T08:15:39.454Z,9.90
2018-04-29T08:18:07.084Z,10.00
2018-04-29T08:20:34.725Z,10.00
2018-04-29T08:23:02.342Z,10.10
2018-04-29T08:25:30.768Z,10.00
2018-04-29T08:27:58.389Z,10.00
2018-04-29T08:30:26.021Z,10.00
2018-04-29T08:32:53.695Z,10.00
2018-04-29T08:35:21.326Z,10.00
2018-04-29T08:37:49.074Z,10.00
2018-04-29T08:40:17.443Z,10.30
2018-04-29T08:42:45.045Z,10.30
2018-04-29T08:45:12.741Z,10.40
2018-04-29T08:50:34.033Z,10.40
2018-04-29T08:53:13.940Z,10.40
2018-04-29T08:55:49.043Z,10.60
2018-04-29T08:58:19.719Z,10.70
2018-04-29T09:00:47.364Z,10.90
2018-04-29T09:06:25.392Z,10.90
2018-04-29T09:08:53.088Z,11.10
2018-04-29T09:11:20.737Z,11.00
2018-04-29T09:13:48.423Z,10.70
2018-04-29T09:16:16.173Z,10.80
2018-04-29T09:21:30.549Z,10.80
2018-04-29T09:24:01.109Z,10.50
2018-04-29T09:26:30.929Z,10.40
2018-04-29T09:32:11.138Z,10.60
2018-04-29T09:34:40.161Z,10.40
2018-04-29T09:37:09.437Z,10.50
2018-04-29T09:39:38.172Z,10.30
2018-04-29T09:42:05.910Z,10.30
2018-04-29T09:44:40.185Z,10.40
2018-04-29T09:52:55.595Z,10.40
2018-04-29T09:55:26.042Z,10.70
2018-04-29T09:57:53.809Z,10.70
2018-04-29T10:00:31.697Z,10.50
2018-04-29T10:08:17.365Z,10.80
2018-04-29T10:10:59.090Z,10.80
2018-04-29T10:13:40.794Z,11.20
2018-04-29T10:19:02.281Z,11.50
2018-04-29T10:21:30.478Z,11.20
2018-04-29T10:32:40.955Z,11.20
2018-04-29T11:01:32.383Z,10.80
2018-04-29T11:19:04.373Z,10.70
2018-04-29T11:59:33.513Z,11.10
2018-04-29T12:20:14.876Z,11.40
2018-04-29T12:22:53.495Z,11.40
2018-04-29T12:28:36.638Z,11.20
2018-04-29T12:31:04.343Z,11.40
2018-04-29T12:33:32.093Z,11.10
2018-04-29T12:35:59.841Z,11.10
2018-04-29T12:38:27.531Z,11.00
2018-04-29T12:40:57.033Z,11.40
2018-04-29T12:43:25.478Z,11.30
2018-04-29T12:46:14.777Z,11.40
2018-04-29T12:48:42.436Z,11.40
2018-04-29T12:51:10.071Z,11.50
2018-04-29T12:53:37.777Z,11.10
2018-04-29T12:56:07.274Z,11.10
2018-04-29T12:58:34.985Z,11.00
2018-04-29T13:01:05.271Z,11.20
2018-04-29T13:03:33.032Z,11.20
2018-04-29T13:45:27.141Z,11.00
2018-04-29T14:34:31.739Z,11.00
2018-04-29T14:36:59.414Z,11.10
2018-04-29T14:39:28.023Z,11.00
2018-04-29T14:41:55.700Z,11.10
2018-04-29T14:44:23.389Z,11.10
2018-04-29T14:46:57.592Z,11.00
2018-04-29T14:49:27.179Z,11.10
2018-04-29T14:51:58.472Z,10.90
2018-04-29T14:54:26.116Z,11.00
2018-04-29T14:56:53.796Z,10.80
2018-04-29T15:05:27.801Z,10.90
2018-04-29T15:07:55.698Z,11.10
2018-04-29T15:15:59.675Z,10.90
2018-04-29T15:18:41.770Z,11.10
2018-04-29T15:23:51.433Z,11.10
2018-04-29T15:26:20.280Z,11.10
2018-04-29T15:28:47.949Z,11.00
2018-04-29T15:31:15.676Z,11.10
2018-04-29T15:33:46.955Z,11.00
2018-04-29T16:12:14.579Z,10.90
2018-04-29T16:31:44.897Z,10.80
2018-04-29T16:34:14.029Z,10.90
2018-04-29T16:36:41.754Z,10.80
2018-04-29T16:39:09.637Z,10.80
2018-04-29T16:41:42.836Z,11.10
2018-04-29T16:44:11.307Z,10.70
2018-04-29T16:46:38.896Z,11.00
2018-04-29T16:49:06.580Z,10.90
2018-04-29T16:51:35.584Z,10.80
2018-04-29T16:54:09.133Z,10.90
2018-04-29T16:56:38.616Z,11.00
2018-04-29T16:59:07.078Z,11.00
2018-04-29T17:01:37.638Z,11.00
2018-04-29T17:04:07.597Z,10.60
2018-04-29T17:06:35.944Z,11.00
2018-04-29T17:09:03.658Z,10.80
2018-04-29T17:11:35.164Z,10.70
2018-04-29T17:14:03.499Z,10.80
2018-04-29T17:16:31.986Z,10.80
2018-04-29T17:19:03.818Z,10.70
2018-04-29T17:21:32.472Z,10.60
2018-04-29T17:24:02.417Z,10.70
2018-04-29T17:26:30.076Z,10.70
2018-04-29T17:28:57.807Z,10.80
2018-04-29T17:31:28.100Z,10.50
2018-04-29T17:34:00.998Z,10.60
2018-04-29T17:36:30.762Z,10.70
2018-04-29T17:38:59.214Z,10.70
2018-04-29T17:41:31.789Z,10.40
2018-04-29T17:43:59.592Z,10.50
2018-04-29T17:46:27.850Z,10.70
2018-04-29T17:48:56.990Z,10.70
2018-04-29T17:51:26.457Z,10.70
2018-04-29T17:53:54.979Z,10.70
2018-04-29T17:56:27.174Z,10.40
2018-04-29T17:58:59.426Z,10.30
2018-04-29T18:01:31.759Z,10.70
2018-04-29T18:04:12.179Z,10.40
2018-04-29T18:09:22.756Z,10.70
2018-04-29T18:11:53.877Z,10.70
2018-04-29T18:14:21.977Z,10.70
2018-04-29T18:16:51.953Z,10.50
2018-04-29T18:19:24.258Z,10.30
2018-04-29T18:24:31.315Z,10.30
2018-04-29T18:27:05.177Z,10.40
2018-04-29T18:29:34.938Z,10.40
2018-04-29T18:32:07.098Z,10.40
2018-04-29T18:34:51.145Z,10.20
2018-04-29T18:37:27.057Z,10.40
2018-04-29T18:39:58.658Z,10.40
2018-04-29T18:42:27.725Z,10.40
2018-04-29T18:44:59.666Z,10.30
2018-04-29T18:47:28.829Z,10.20
2018-04-29T18:49:59.030Z,10.40
2018-04-29T18:52:31.637Z,10.30
2018-04-29T18:55:00.720Z,10.30
2018-04-29T18:57:30.643Z,10.40
2018-04-29T19:00:02.080Z,10.40
2018-04-29T19:02:45.676Z,10.30
2018-04-29T19:05:13.985Z,10.20
2018-04-29T19:07:44.366Z,10.40
2018-04-29T19:10:13.442Z,10.10
2018-04-29T19:12:42.763Z,10.30
2018-04-29T19:17:43.731Z,10.40
2018-04-29T19:20:11.576Z,10.40
2018-04-29T19:22:42.504Z,10.30
2018-04-29T19:25:11.026Z,10.40
2018-04-29T19:27:39.570Z,10.30
2018-04-29T19:30:08.038Z,10.30
2018-04-29T19:32:37.603Z,10.00
2018-04-29T19:35:05.432Z,10.20
2018-04-29T19:37:34.680Z,10.40
2018-04-29T19:40:03.329Z,10.40
2018-04-29T19:42:33.077Z,10.20
2018-04-29T19:45:03.826Z,10.10
2018-04-29T19:47:32.483Z,10.20
2018-04-29T19:50:00.277Z,10.20
2018-04-29T19:52:27.974Z,10.20
2018-04-29T19:55:03.478Z,10.50
2018-04-29T19:57:33.533Z,10.50
2018-04-29T20:00:05.185Z,10.50
2018-04-29T20:02:38.150Z,10.40
2018-04-29T20:05:09.658Z,10.40
2018-04-29T20:07:40.303Z,10.40
2018-04-29T20:10:11.740Z,10.20
2018-04-29T20:12:40.270Z,10.30
2018-04-29T20:15:14.824Z,10.40
2018-04-29T20:17:45.589Z,10.40
2018-04-29T20:20:13.380Z,10.30
2018-04-29T20:22:42.736Z,10.20
2018-04-29T20:25:10.533Z,10.30
2018-04-29T20:27:40.569Z,10.30
2018-04-29T20:30:09.613Z,10.40
2018-04-29T20:32:55.068Z,10.30
2018-04-29T20:35:25.046Z,10.30
2018-04-29T20:37:53.983Z,10.40
2018-04-29T20:40:24.405Z,10.40
2018-04-29T20:42:52.224Z,10.40
2018-04-29T20:45:20.988Z,10.20
2018-04-29T20:50:40.980Z,10.30
2018-04-29T20:53:08.733Z,9.90
2018-04-29T20:55:46.110Z,9.90
2018-04-29T20:58:15.872Z,9.90
2018-04-29T21:00:46.047Z,10.20
2018-04-29T21:03:14.767Z,9.90
2018-04-29T21:05:57.458Z,10.40
2018-04-29T21:08:26.221Z,10.10
2018-04-29T21:10:55.030Z,10.00
2018-04-29T21:13:23.540Z,10.10
2018-04-29T21:15:52.112Z,10.20
2018-04-29T21:18:20.800Z,10.00
2018-04-29T21:20:48.642Z,10.10
2018-04-29T21:23:17.427Z,9.90
2018-04-29T21:25:45.669Z,10.10
2018-04-29T21:28:13.390Z,10.10
2018-04-29T21:30:43.625Z,10.10
2018-04-29T21:33:14.100Z,10.10
2018-04-29T21:35:45.701Z,10.10
2018-04-29T21:38:15.475Z,10.00
2018-04-29T21:40:44.857Z,9.90
2018-04-29T21:43:12.558Z,10.20
2018-04-29T21:45:40.329Z,10.10
2018-04-29T21:48:08.081Z,10.10
2018-04-29T21:50:35.836Z,10.00
2018-04-29T21:53:03.696Z,10.10
2018-04-29T21:55:31.809Z,10.20
2018-04-29T21:57:59.539Z,10.10
2018-04-29T22:00:27.290Z,10.10
2018-04-29T22:02:55.068Z,10.10
2018-04-29T22:05:24.352Z,10.10
2018-04-29T22:07:56.231Z,10.20
2018-04-29T22:10:23.903Z,9.90
2018-04-29T22:12:52.770Z,10.20
2018-04-29T22:15:27.336Z,10.20
2018-04-29T22:17:55.775Z,10.10
2018-04-29T22:20:31.281Z,9.90
2018-04-29T22:23:01.467Z,10.10
2018-04-29T22:25:31.717Z,9.80
2018-04-29T22:28:01.205Z,10.10
2018-04-29T22:30:31.501Z,9.90
2018-04-29T22:32:59.962Z,9.80
2018-04-29T22:35:27.649Z,10.10
2018-04-29T22:37:56.082Z,9.80
2018-04-29T22:40:29.127Z,10.00
2018-04-29T22:42:57.517Z,9.90
2018-04-29T22:45:26.385Z,9.60
2018-04-29T22:47:55.498Z,9.90
2018-04-29T22:50:27.053Z,10.20
2018-04-29T22:55:34.762Z,9.60
2018-04-29T22:58:02.409Z,9.90
2018-04-29T23:00:30.795Z,9.80
2018-04-29T23:02:59.516Z,9.80
2018-04-29T23:05:27.220Z,9.70
2018-04-29T23:07:55.055Z,9.70
2018-04-29T23:10:22.790Z,9.70
2018-04-29T23:12:51.323Z,9.90
2018-04-29T23:15:19.909Z,9.60
2018-04-29T23:17:53.242Z,9.50
2018-04-29T23:20:22.641Z,9.80
2018-04-29T23:22:53.270Z,9.60
2018-04-29T23:25:22.266Z,9.60
2018-04-29T23:27:50.052Z,9.70
2018-04-29T23:30:17.972Z,9.80
2018-04-29T23:32:47.393Z,9.80
2018-04-29T23:35:15.192Z,9.90
2018-04-29T23:37:43.625Z,9.90
2018-04-29T23:40:11.402Z,9.80
2018-04-29T23:42:39.182Z,9.80
2018-04-29T23:45:07.498Z,9.90
2018-04-29T23:47:35.724Z,9.90
2018-04-29T23:50:04.416Z,9.70
2018-04-29T23:52:32.825Z,9.90
2018-04-29T23:55:00.523Z,10.10
2018-04-29T23:57:28.320Z,9.90
2018-04-29T23:59:56.987Z,10.20
